sensor_id;sensor_type;location;lat;lon;timestamp;P1;durP1;ratioP1;P2;durP2;ratioP2
4391;SDS011;2210;51.938;8.488;2023-12-20T00:00:19;7.57;;;5.30;;
4391;SDS011;2210;51.938;8.488;2023-12-20T00:04:19;5.90;;;4.93;;
4391;SDS011;2210;51.938;8.488;2023-12-20T00:08:20;5.50;;;4.70;;
4391;SDS011;2210;51.938;8.488;2023-12-20T00:12:20;6.00;;;5.10;;
4391;SDS011;2210;51.938;8.488;2023-12-20T00:16:20;6.05;;;5.07;;
4391;SDS011;2210;51.938;8.488;2023-12-20T00:20:20;5.93;;;5.00;;
4391;SDS011;2210;51.938;8.488;2023-12-20T00:24:21;4.87;;;3.80;;
4391;SDS011;2210;51.938;8.488;2023-12-20T00:28:21;4.67;;;4.00;;
4391;SDS011;2210;51.938;8.488;2023-12-20T00:32:24;5.50;;;4.10;;
4391;SDS011;2210;51.938;8.488;2023-12-20T00:36:25;6.67;;;3.40;;
4391;SDS011;2210;51.938;8.488;2023-12-20T00:40:25;6.93;;;3.43;;
4391;SDS011;2210;51.938;8.488;2023-12-20T00:44:25;9.03;;;3.60;;
4391;SDS011;2210;51.938;8.488;2023-12-20T00:48:26;4.60;;;3.87;;
4391;SDS011;2210;51.938;8.488;2023-12-20T00:52:31;7.10;;;4.07;;
4391;SDS011;2210;51.938;8.488;2023-12-20T00:56:31;4.30;;;3.50;;
4391;SDS011;2210;51.938;8.488;2023-12-20T01:00:31;5.00;;;3.40;;
4391;SDS011;2210;51.938;8.488;2023-12-20T01:04:32;4.50;;;3.77;;
4391;SDS011;2210;51.938;8.488;2023-12-20T01:08:32;5.83;;;3.53;;
4391;SDS011;2210;51.938;8.488;2023-12-20T01:12:35;4.70;;;3.60;;
4391;SDS011;2210;51.938;8.488;2023-12-20T01:16:36;5.37;;;3.90;;
4391;SDS011;2210;51.938;8.488;2023-12-20T01:20:36;4.78;;;2.90;;
4391;SDS011;2210;51.938;8.488;2023-12-20T01:24:36;5.00;;;3.63;;
4391;SDS011;2210;51.938;8.488;2023-12-20T01:28:37;3.47;;;2.90;;
4391;SDS011;2210;51.938;8.488;2023-12-20T01:32:37;3.83;;;3.03;;
4391;SDS011;2210;51.938;8.488;2023-12-20T01:36:37;3.80;;;2.10;;
4391;SDS011;2210;51.938;8.488;2023-12-20T01:40:38;2.70;;;2.33;;
4391;SDS011;2210;51.938;8.488;2023-12-20T01:44:38;5.40;;;2.13;;
4391;SDS011;2210;51.938;8.488;2023-12-20T01:48:38;1.97;;;1.83;;
4391;SDS011;2210;51.938;8.488;2023-12-20T01:52:39;3.23;;;1.53;;
4391;SDS011;2210;51.938;8.488;2023-12-20T01:56:39;4.90;;;1.40;;
4391;SDS011;2210;51.938;8.488;2023-12-20T02:00:40;3.00;;;1.80;;
4391;SDS011;2210;51.938;8.488;2023-12-20T02:04:40;2.23;;;1.47;;
4391;SDS011;2210;51.938;8.488;2023-12-20T02:08:41;2.27;;;1.90;;
4391;SDS011;2210;51.938;8.488;2023-12-20T02:12:41;5.20;;;1.93;;
4391;SDS011;2210;51.938;8.488;2023-12-20T02:16:41;4.00;;;1.63;;
4391;SDS011;2210;51.938;8.488;2023-12-20T02:20:42;4.20;;;1.80;;
4391;SDS011;2210;51.938;8.488;2023-12-20T02:24:42;2.60;;;1.23;;
4391;SDS011;2210;51.938;8.488;2023-12-20T02:28:42;2.10;;;1.88;;
4391;SDS011;2210;51.938;8.488;2023-12-20T02:32:43;2.70;;;1.40;;
4391;SDS011;2210;51.938;8.488;2023-12-20T02:36:43;6.03;;;1.73;;
4391;SDS011;2210;51.938;8.488;2023-12-20T02:40:43;3.00;;;1.70;;
4391;SDS011;2210;51.938;8.488;2023-12-20T02:44:43;2.70;;;1.70;;
4391;SDS011;2210;51.938;8.488;2023-12-20T02:48:43;2.67;;;1.35;;
4391;SDS011;2210;51.938;8.488;2023-12-20T03:07:02;4.97;;;2.90;;
4391;SDS011;2210;51.938;8.488;2023-12-20T03:11:02;2.80;;;2.40;;
4391;SDS011;2210;51.938;8.488;2023-12-20T03:15:03;4.70;;;2.97;;
4391;SDS011;2210;51.938;8.488;2023-12-20T03:19:03;3.37;;;2.70;;
4391;SDS011;2210;51.938;8.488;2023-12-20T03:23:04;5.68;;;3.50;;
4391;SDS011;2210;51.938;8.488;2023-12-20T03:27:04;5.13;;;3.10;;
4391;SDS011;2210;51.938;8.488;2023-12-20T03:31:04;3.92;;;3.05;;
4391;SDS011;2210;51.938;8.488;2023-12-20T03:35:04;7.03;;;3.20;;
4391;SDS011;2210;51.938;8.488;2023-12-20T03:39:05;7.60;;;3.30;;
4391;SDS011;2210;51.938;8.488;2023-12-20T03:43:05;7.53;;;2.83;;
4391;SDS011;2210;51.938;8.488;2023-12-20T03:47:06;4.07;;;2.77;;
4391;SDS011;2210;51.938;8.488;2023-12-20T03:51:06;3.67;;;2.40;;
4391;SDS011;2210;51.938;8.488;2023-12-20T03:55:13;4.27;;;2.67;;
4391;SDS011;2210;51.938;8.488;2023-12-20T03:59:13;7.00;;;3.03;;
4391;SDS011;2210;51.938;8.488;2023-12-20T04:03:23;4.80;;;3.30;;
4391;SDS011;2210;51.938;8.488;2023-12-20T04:07:23;6.63;;;2.95;;
4391;SDS011;2210;51.938;8.488;2023-12-20T04:11:23;8.83;;;3.50;;
4391;SDS011;2210;51.938;8.488;2023-12-20T04:15:24;3.78;;;2.90;;
4391;SDS011;2210;51.938;8.488;2023-12-20T04:19:24;10.80;;;3.47;;
4391;SDS011;2210;51.938;8.488;2023-12-20T04:23:24;8.98;;;2.90;;
4391;SDS011;2210;51.938;8.488;2023-12-20T04:27:27;6.53;;;3.00;;
4391;SDS011;2210;51.938;8.488;2023-12-20T04:31:28;10.47;;;2.83;;
4391;SDS011;2210;51.938;8.488;2023-12-20T04:35:28;6.65;;;2.33;;
4391;SDS011;2210;51.938;8.488;2023-12-20T04:39:28;9.77;;;3.08;;
4391;SDS011;2210;51.938;8.488;2023-12-20T04:43:29;10.83;;;2.37;;
4391;SDS011;2210;51.938;8.488;2023-12-20T04:47:29;4.30;;;2.40;;
4391;SDS011;2210;51.938;8.488;2023-12-20T04:51:30;6.70;;;2.23;;
4391;SDS011;2210;51.938;8.488;2023-12-20T04:55:33;3.43;;;1.93;;
4391;SDS011;2210;51.938;8.488;2023-12-20T04:59:33;6.70;;;2.67;;
4391;SDS011;2210;51.938;8.488;2023-12-20T05:03:37;4.30;;;2.22;;
4391;SDS011;2210;51.938;8.488;2023-12-20T05:07:37;6.13;;;2.33;;
4391;SDS011;2210;51.938;8.488;2023-12-20T05:11:43;4.67;;;2.40;;
4391;SDS011;2210;51.938;8.488;2023-12-20T05:15:43;6.13;;;2.43;;
4391;SDS011;2210;51.938;8.488;2023-12-20T05:19:44;6.83;;;2.93;;
4391;SDS011;2210;51.938;8.488;2023-12-20T05:23:44;4.57;;;2.50;;
4391;SDS011;2210;51.938;8.488;2023-12-20T05:27:45;6.70;;;2.87;;
4391;SDS011;2210;51.938;8.488;2023-12-20T05:31:45;6.37;;;2.33;;
4391;SDS011;2210;51.938;8.488;2023-12-20T05:35:45;5.80;;;2.40;;
4391;SDS011;2210;51.938;8.488;2023-12-20T05:39:46;4.27;;;2.30;;
4391;SDS011;2210;51.938;8.488;2023-12-20T05:43:49;4.72;;;2.78;;
4391;SDS011;2210;51.938;8.488;2023-12-20T05:47:49;5.97;;;2.47;;
4391;SDS011;2210;51.938;8.488;2023-12-20T05:51:50;11.27;;;2.55;;
4391;SDS011;2210;51.938;8.488;2023-12-20T05:55:51;7.10;;;2.70;;
4391;SDS011;2210;51.938;8.488;2023-12-20T05:59:51;10.05;;;3.47;;
4391;SDS011;2210;51.938;8.488;2023-12-20T06:03:51;7.60;;;3.17;;
4391;SDS011;2210;51.938;8.488;2023-12-20T06:07:52;7.15;;;2.85;;
4391;SDS011;2210;51.938;8.488;2023-12-20T06:11:52;6.00;;;2.70;;
4391;SDS011;2210;51.938;8.488;2023-12-20T06:15:54;5.13;;;2.90;;
4391;SDS011;2210;51.938;8.488;2023-12-20T06:19:55;5.17;;;3.20;;
4391;SDS011;2210;51.938;8.488;2023-12-20T06:23:55;9.50;;;3.20;;
4391;SDS011;2210;51.938;8.488;2023-12-20T06:27:55;10.77;;;4.87;;
4391;SDS011;2210;51.938;8.488;2023-12-20T06:31:55;5.10;;;2.50;;
4391;SDS011;2210;51.938;8.488;2023-12-20T06:35:56;7.32;;;2.72;;
4391;SDS011;2210;51.938;8.488;2023-12-20T06:39:59;5.97;;;3.20;;
4391;SDS011;2210;51.938;8.488;2023-12-20T06:44:00;7.70;;;2.97;;
4391;SDS011;2210;51.938;8.488;2023-12-20T06:48:03;7.80;;;3.30;;
4391;SDS011;2210;51.938;8.488;2023-12-20T06:52:04;4.53;;;2.90;;
4391;SDS011;2210;51.938;8.488;2023-12-20T06:56:04;10.93;;;2.90;;
4391;SDS011;2210;51.938;8.488;2023-12-20T07:00:05;10.03;;;3.60;;
4391;SDS011;2210;51.938;8.488;2023-12-20T07:04:09;10.63;;;3.20;;
4391;SDS011;2210;51.938;8.488;2023-12-20T07:08:18;10.80;;;3.30;;
4391;SDS011;2210;51.938;8.488;2023-12-20T07:12:19;14.20;;;3.10;;
4391;SDS011;2210;51.938;8.488;2023-12-20T07:16:19;6.83;;;2.80;;
4391;SDS011;2210;51.938;8.488;2023-12-20T07:20:20;18.07;;;4.33;;
4391;SDS011;2210;51.938;8.488;2023-12-20T07:24:20;8.48;;;3.35;;
4391;SDS011;2210;51.938;8.488;2023-12-20T07:28:20;8.93;;;3.60;;
4391;SDS011;2210;51.938;8.488;2023-12-20T07:32:21;11.20;;;3.30;;
4391;SDS011;2210;51.938;8.488;2023-12-20T07:36:21;14.55;;;3.05;;
4391;SDS011;2210;51.938;8.488;2023-12-20T07:40:21;5.43;;;2.47;;
4391;SDS011;2210;51.938;8.488;2023-12-20T07:44:21;7.70;;;2.40;;
4391;SDS011;2210;51.938;8.488;2023-12-20T07:48:22;7.87;;;3.20;;
4391;SDS011;2210;51.938;8.488;2023-12-20T07:52:22;8.60;;;3.43;;
4391;SDS011;2210;51.938;8.488;2023-12-20T07:56:23;6.77;;;2.70;;
4391;SDS011;2210;51.938;8.488;2023-12-20T08:00:23;7.30;;;2.92;;
4391;SDS011;2210;51.938;8.488;2023-12-20T08:04:26;11.73;;;3.00;;
4391;SDS011;2210;51.938;8.488;2023-12-20T08:08:27;4.60;;;2.63;;
4391;SDS011;2210;51.938;8.488;2023-12-20T08:12:28;4.00;;;2.00;;
4391;SDS011;2210;51.938;8.488;2023-12-20T08:16:37;12.73;;;2.73;;
4391;SDS011;2210;51.938;8.488;2023-12-20T08:20:37;6.70;;;2.20;;
4391;SDS011;2210;51.938;8.488;2023-12-20T08:24:38;9.38;;;2.83;;
4391;SDS011;2210;51.938;8.488;2023-12-20T08:28:38;6.33;;;2.90;;
4391;SDS011;2210;51.938;8.488;2023-12-20T08:32:38;6.97;;;2.67;;
4391;SDS011;2210;51.938;8.488;2023-12-20T08:36:39;10.77;;;2.80;;
4391;SDS011;2210;51.938;8.488;2023-12-20T08:40:39;5.38;;;2.63;;
4391;SDS011;2210;51.938;8.488;2023-12-20T08:44:39;8.18;;;2.67;;
4391;SDS011;2210;51.938;8.488;2023-12-20T08:48:39;5.82;;;3.00;;
4391;SDS011;2210;51.938;8.488;2023-12-20T08:52:40;5.77;;;2.87;;
4391;SDS011;2210;51.938;8.488;2023-12-20T08:56:40;4.67;;;2.83;;
4391;SDS011;2210;51.938;8.488;2023-12-20T09:00:40;7.97;;;4.63;;
4391;SDS011;2210;51.938;8.488;2023-12-20T09:04:40;6.78;;;3.50;;
4391;SDS011;2210;51.938;8.488;2023-12-20T09:08:41;11.48;;;3.25;;
4391;SDS011;2210;51.938;8.488;2023-12-20T09:12:44;6.60;;;3.37;;
4391;SDS011;2210;51.938;8.488;2023-12-20T09:16:44;6.00;;;3.50;;
4391;SDS011;2210;51.938;8.488;2023-12-20T09:20:45;14.05;;;5.07;;
4391;SDS011;2210;51.938;8.488;2023-12-20T09:24:45;6.17;;;3.53;;
4391;SDS011;2210;51.938;8.488;2023-12-20T09:28:45;8.32;;;4.32;;
4391;SDS011;2210;51.938;8.488;2023-12-20T09:32:45;6.93;;;4.13;;
4391;SDS011;2210;51.938;8.488;2023-12-20T09:36:46;10.60;;;5.23;;
4391;SDS011;2210;51.938;8.488;2023-12-20T09:40:47;7.23;;;4.33;;
4391;SDS011;2210;51.938;8.488;2023-12-20T09:44:47;6.33;;;3.60;;
4391;SDS011;2210;51.938;8.488;2023-12-20T09:48:47;9.23;;;4.13;;
4391;SDS011;2210;51.938;8.488;2023-12-20T09:52:54;13.20;;;4.07;;
4391;SDS011;2210;51.938;8.488;2023-12-20T09:56:58;16.80;;;4.37;;
4391;SDS011;2210;51.938;8.488;2023-12-20T10:01:01;9.50;;;3.93;;
4391;SDS011;2210;51.938;8.488;2023-12-20T10:05:01;6.17;;;3.20;;
4391;SDS011;2210;51.938;8.488;2023-12-20T10:09:03;7.47;;;4.70;;
4391;SDS011;2210;51.938;8.488;2023-12-20T10:13:04;5.00;;;3.40;;
4391;SDS011;2210;51.938;8.488;2023-12-20T10:17:10;9.60;;;3.33;;
4391;SDS011;2210;51.938;8.488;2023-12-20T10:21:16;11.80;;;3.50;;
4391;SDS011;2210;51.938;8.488;2023-12-20T10:25:24;6.60;;;3.30;;
4391;SDS011;2210;51.938;8.488;2023-12-20T10:29:24;4.93;;;3.20;;
4391;SDS011;2210;51.938;8.488;2023-12-20T10:33:25;7.63;;;2.88;;
4391;SDS011;2210;51.938;8.488;2023-12-20T10:37:26;10.23;;;3.60;;
4391;SDS011;2210;51.938;8.488;2023-12-20T10:41:27;8.33;;;3.10;;
4391;SDS011;2210;51.938;8.488;2023-12-20T10:45:28;6.47;;;3.10;;
4391;SDS011;2210;51.938;8.488;2023-12-20T10:49:29;4.37;;;2.50;;
4391;SDS011;2210;51.938;8.488;2023-12-20T10:53:31;8.63;;;3.37;;
4391;SDS011;2210;51.938;8.488;2023-12-20T10:57:33;7.90;;;3.00;;
4391;SDS011;2210;51.938;8.488;2023-12-20T11:01:36;7.07;;;2.50;;
4391;SDS011;2210;51.938;8.488;2023-12-20T11:05:46;12.93;;;3.93;;
4391;SDS011;2210;51.938;8.488;2023-12-20T11:10:00;7.13;;;3.70;;
4391;SDS011;2210;51.938;8.488;2023-12-20T11:14:29;6.70;;;2.60;;
4391;SDS011;2210;51.938;8.488;2023-12-20T11:18:40;6.50;;;2.90;;
4391;SDS011;2210;51.938;8.488;2023-12-20T11:22:51;3.83;;;2.37;;
4391;SDS011;2210;51.938;8.488;2023-12-20T11:26:56;3.13;;;2.40;;
4391;SDS011;2210;51.938;8.488;2023-12-20T11:30:57;4.30;;;2.60;;
4391;SDS011;2210;51.938;8.488;2023-12-20T11:39:21;4.90;;;2.43;;
4391;SDS011;2210;51.938;8.488;2023-12-20T11:47:35;5.50;;;2.50;;
4391;SDS011;2210;51.938;8.488;2023-12-20T11:51:40;5.33;;;2.27;;
4391;SDS011;2210;51.938;8.488;2023-12-20T11:55:40;7.30;;;2.47;;
4391;SDS011;2210;51.938;8.488;2023-12-20T11:59:41;3.13;;;2.03;;
4391;SDS011;2210;51.938;8.488;2023-12-20T12:03:43;4.27;;;2.03;;
4391;SDS011;2210;51.938;8.488;2023-12-20T12:07:43;5.90;;;2.50;;
4391;SDS011;2210;51.938;8.488;2023-12-20T12:11:43;6.32;;;2.10;;
4391;SDS011;2210;51.938;8.488;2023-12-20T12:15:45;5.57;;;1.60;;
4391;SDS011;2210;51.938;8.488;2023-12-20T12:19:46;4.20;;;2.10;;
4391;SDS011;2210;51.938;8.488;2023-12-20T12:23:47;9.47;;;2.00;;
4391;SDS011;2210;51.938;8.488;2023-12-20T12:27:47;4.13;;;2.03;;
4391;SDS011;2210;51.938;8.488;2023-12-20T12:31:47;5.57;;;2.00;;
4391;SDS011;2210;51.938;8.488;2023-12-20T12:35:47;3.33;;;1.63;;
4391;SDS011;2210;51.938;8.488;2023-12-20T12:39:48;5.80;;;1.90;;
4391;SDS011;2210;51.938;8.488;2023-12-20T12:43:48;6.27;;;2.50;;
4391;SDS011;2210;51.938;8.488;2023-12-20T12:47:51;5.00;;;2.03;;
4391;SDS011;2210;51.938;8.488;2023-12-20T12:51:54;4.90;;;2.50;;
4391;SDS011;2210;51.938;8.488;2023-12-20T12:55:58;5.37;;;2.00;;
4391;SDS011;2210;51.938;8.488;2023-12-20T13:00:01;7.23;;;2.40;;
4391;SDS011;2210;51.938;8.488;2023-12-20T13:04:03;8.10;;;2.53;;
4391;SDS011;2210;51.938;8.488;2023-12-20T13:08:06;10.13;;;2.57;;
4391;SDS011;2210;51.938;8.488;2023-12-20T13:12:07;3.42;;;1.88;;
4391;SDS011;2210;51.938;8.488;2023-12-20T13:16:07;6.50;;;3.00;;
4391;SDS011;2210;51.938;8.488;2023-12-20T13:20:08;4.03;;;1.90;;
4391;SDS011;2210;51.938;8.488;2023-12-20T13:24:11;8.80;;;2.30;;
4391;SDS011;2210;51.938;8.488;2023-12-20T13:28:20;3.43;;;1.40;;
4391;SDS011;2210;51.938;8.488;2023-12-20T13:32:23;2.50;;;1.20;;
4391;SDS011;2210;51.938;8.488;2023-12-20T13:36:23;5.53;;;1.17;;
4391;SDS011;2210;51.938;8.488;2023-12-20T13:40:24;1.30;;;0.80;;
4391;SDS011;2210;51.938;8.488;2023-12-20T13:44:24;2.93;;;2.70;;
4391;SDS011;2210;51.938;8.488;2023-12-20T13:48:25;2.93;;;1.20;;
4391;SDS011;2210;51.938;8.488;2023-12-20T13:52:25;2.90;;;1.88;;
4391;SDS011;2210;51.938;8.488;2023-12-20T13:56:25;2.00;;;0.73;;
4391;SDS011;2210;51.938;8.488;2023-12-20T14:00:26;2.23;;;0.80;;
4391;SDS011;2210;51.938;8.488;2023-12-20T14:04:28;1.50;;;0.90;;
4391;SDS011;2210;51.938;8.488;2023-12-20T14:08:40;1.00;;;0.83;;
4391;SDS011;2210;51.938;8.488;2023-12-20T14:12:41;1.60;;;0.80;;
4391;SDS011;2210;51.938;8.488;2023-12-20T14:16:48;2.43;;;0.80;;
4391;SDS011;2210;51.938;8.488;2023-12-20T14:20:51;3.80;;;1.20;;
4391;SDS011;2210;51.938;8.488;2023-12-20T14:24:55;2.90;;;1.10;;
4391;SDS011;2210;51.938;8.488;2023-12-20T14:29:00;3.47;;;1.30;;
4391;SDS011;2210;51.938;8.488;2023-12-20T14:33:03;1.53;;;1.20;;
4391;SDS011;2210;51.938;8.488;2023-12-20T14:37:04;1.43;;;1.00;;
4391;SDS011;2210;51.938;8.488;2023-12-20T14:41:17;1.70;;;1.00;;
4391;SDS011;2210;51.938;8.488;2023-12-20T14:45:22;3.00;;;1.20;;
4391;SDS011;2210;51.938;8.488;2023-12-20T14:49:26;0.80;;;0.80;;
4391;SDS011;2210;51.938;8.488;2023-12-20T14:53:26;1.53;;;1.00;;
4391;SDS011;2210;51.938;8.488;2023-12-20T14:57:30;1.60;;;1.20;;
4391;SDS011;2210;51.938;8.488;2023-12-20T15:01:48;1.90;;;1.13;;
4391;SDS011;2210;51.938;8.488;2023-12-20T15:05:49;2.43;;;1.23;;
4391;SDS011;2210;51.938;8.488;2023-12-20T15:09:53;3.70;;;1.57;;
4391;SDS011;2210;51.938;8.488;2023-12-20T15:13:56;2.80;;;1.30;;
4391;SDS011;2210;51.938;8.488;2023-12-20T15:17:57;1.77;;;1.20;;
4391;SDS011;2210;51.938;8.488;2023-12-20T15:22:00;1.90;;;1.30;;
4391;SDS011;2210;51.938;8.488;2023-12-20T15:26:03;2.20;;;1.07;;
4391;SDS011;2210;51.938;8.488;2023-12-20T15:30:13;1.10;;;0.80;;
4391;SDS011;2210;51.938;8.488;2023-12-20T15:34:16;2.43;;;1.40;;
4391;SDS011;2210;51.938;8.488;2023-12-20T15:38:20;1.90;;;1.37;;
4391;SDS011;2210;51.938;8.488;2023-12-20T15:42:20;3.23;;;1.33;;
4391;SDS011;2210;51.938;8.488;2023-12-20T15:46:21;1.40;;;1.30;;
4391;SDS011;2210;51.938;8.488;2023-12-20T15:50:24;1.90;;;1.37;;
4391;SDS011;2210;51.938;8.488;2023-12-20T15:54:26;5.00;;;1.50;;
4391;SDS011;2210;51.938;8.488;2023-12-20T15:58:26;4.67;;;2.40;;
4391;SDS011;2210;51.938;8.488;2023-12-20T16:02:29;5.10;;;2.30;;
4391;SDS011;2210;51.938;8.488;2023-12-20T16:06:30;8.40;;;2.60;;
4391;SDS011;2210;51.938;8.488;2023-12-20T16:10:30;7.70;;;2.60;;
4391;SDS011;2210;51.938;8.488;2023-12-20T16:14:32;3.33;;;2.80;;
4391;SDS011;2210;51.938;8.488;2023-12-20T16:18:33;6.77;;;3.77;;
4391;SDS011;2210;51.938;8.488;2023-12-20T16:22:35;14.73;;;3.93;;
4391;SDS011;2210;51.938;8.488;2023-12-20T16:26:36;5.53;;;2.93;;
4391;SDS011;2210;51.938;8.488;2023-12-20T16:30:45;6.40;;;2.93;;
4391;SDS011;2210;51.938;8.488;2023-12-20T16:34:49;6.93;;;3.30;;
4391;SDS011;2210;51.938;8.488;2023-12-20T16:38:55;7.73;;;3.37;;
4391;SDS011;2210;51.938;8.488;2023-12-20T16:42:55;6.40;;;3.13;;
4391;SDS011;2210;51.938;8.488;2023-12-20T16:47:03;4.23;;;3.53;;
4391;SDS011;2210;51.938;8.488;2023-12-20T16:51:03;5.40;;;3.53;;
4391;SDS011;2210;51.938;8.488;2023-12-20T17:03:48;9.80;;;3.93;;
4391;SDS011;2210;51.938;8.488;2023-12-20T17:07:48;7.53;;;4.17;;
4391;SDS011;2210;51.938;8.488;2023-12-20T17:11:48;12.02;;;5.10;;
4391;SDS011;2210;51.938;8.488;2023-12-20T17:15:54;9.27;;;4.67;;
4391;SDS011;2210;51.938;8.488;2023-12-20T17:19:55;11.07;;;4.10;;
4391;SDS011;2210;51.938;8.488;2023-12-20T17:23:58;9.83;;;3.97;;
4391;SDS011;2210;51.938;8.488;2023-12-20T17:27:59;7.53;;;4.77;;
4391;SDS011;2210;51.938;8.488;2023-12-20T17:31:59;5.03;;;4.10;;
4391;SDS011;2210;51.938;8.488;2023-12-20T17:36:00;4.70;;;3.80;;
4391;SDS011;2210;51.938;8.488;2023-12-20T17:40:00;11.77;;;4.80;;
4391;SDS011;2210;51.938;8.488;2023-12-20T17:44:00;6.28;;;4.05;;
4391;SDS011;2210;51.938;8.488;2023-12-20T17:48:04;8.50;;;4.50;;
4391;SDS011;2210;51.938;8.488;2023-12-20T17:52:05;9.90;;;4.50;;
4391;SDS011;2210;51.938;8.488;2023-12-20T17:56:06;14.13;;;5.67;;
4391;SDS011;2210;51.938;8.488;2023-12-20T18:00:14;12.43;;;4.60;;
4391;SDS011;2210;51.938;8.488;2023-12-20T18:04:17;19.00;;;5.93;;
4391;SDS011;2210;51.938;8.488;2023-12-20T18:08:20;7.63;;;4.93;;
4391;SDS011;2210;51.938;8.488;2023-12-20T18:12:20;7.73;;;4.80;;
4391;SDS011;2210;51.938;8.488;2023-12-20T18:16:21;14.10;;;5.67;;
4391;SDS011;2210;51.938;8.488;2023-12-20T18:20:21;7.80;;;4.97;;
4391;SDS011;2210;51.938;8.488;2023-12-20T18:24:21;10.30;;;5.80;;
4391;SDS011;2210;51.938;8.488;2023-12-20T18:28:25;14.03;;;6.30;;
4391;SDS011;2210;51.938;8.488;2023-12-20T18:32:26;9.30;;;5.63;;
4391;SDS011;2210;51.938;8.488;2023-12-20T18:36:29;13.00;;;6.50;;
4391;SDS011;2210;51.938;8.488;2023-12-20T18:40:30;7.90;;;6.80;;
4391;SDS011;2210;51.938;8.488;2023-12-20T18:44:30;13.33;;;7.03;;
4391;SDS011;2210;51.938;8.488;2023-12-20T18:48:31;9.80;;;8.37;;
4391;SDS011;2210;51.938;8.488;2023-12-20T18:52:41;18.33;;;8.00;;
4391;SDS011;2210;51.938;8.488;2023-12-20T18:56:48;12.07;;;8.23;;
4391;SDS011;2210;51.938;8.488;2023-12-20T19:00:52;14.73;;;8.60;;
4391;SDS011;2210;51.938;8.488;2023-12-20T19:04:55;13.63;;;8.70;;
4391;SDS011;2210;51.938;8.488;2023-12-20T19:08:58;10.77;;;8.60;;
4391;SDS011;2210;51.938;8.488;2023-12-20T19:12:58;12.80;;;8.87;;
4391;SDS011;2210;51.938;8.488;2023-12-20T19:17:04;12.00;;;8.30;;
4391;SDS011;2210;51.938;8.488;2023-12-20T19:21:07;9.47;;;8.47;;
4391;SDS011;2210;51.938;8.488;2023-12-20T19:25:11;9.57;;;8.43;;
4391;SDS011;2210;51.938;8.488;2023-12-20T19:29:12;14.17;;;9.83;;
4391;SDS011;2210;51.938;8.488;2023-12-20T19:33:13;8.63;;;7.20;;
4391;SDS011;2210;51.938;8.488;2023-12-20T19:37:19;10.03;;;7.73;;
4391;SDS011;2210;51.938;8.488;2023-12-20T19:41:19;10.00;;;7.40;;
4391;SDS011;2210;51.938;8.488;2023-12-20T19:45:20;12.53;;;8.43;;
4391;SDS011;2210;51.938;8.488;2023-12-20T19:49:20;10.77;;;8.67;;
4391;SDS011;2210;51.938;8.488;2023-12-20T19:53:21;14.57;;;7.83;;
4391;SDS011;2210;51.938;8.488;2023-12-20T19:57:23;12.00;;;8.70;;
4391;SDS011;2210;51.938;8.488;2023-12-20T20:01:23;13.48;;;9.55;;
4391;SDS011;2210;51.938;8.488;2023-12-20T20:05:29;11.07;;;8.70;;
4391;SDS011;2210;51.938;8.488;2023-12-20T20:09:30;11.23;;;8.17;;
4391;SDS011;2210;51.938;8.488;2023-12-20T20:13:30;9.17;;;7.67;;
4391;SDS011;2210;51.938;8.488;2023-12-20T20:17:30;8.47;;;7.27;;
4391;SDS011;2210;51.938;8.488;2023-12-20T20:21:34;9.43;;;7.68;;
4391;SDS011;2210;51.938;8.488;2023-12-20T20:25:34;13.47;;;6.60;;
4391;SDS011;2210;51.938;8.488;2023-12-20T20:29:34;9.10;;;6.97;;
4391;SDS011;2210;51.938;8.488;2023-12-20T20:33:35;6.77;;;5.63;;
4391;SDS011;2210;51.938;8.488;2023-12-20T20:37:35;12.77;;;6.67;;
4391;SDS011;2210;51.938;8.488;2023-12-20T20:41:35;7.63;;;5.93;;
4391;SDS011;2210;51.938;8.488;2023-12-20T20:45:36;8.20;;;6.50;;
4391;SDS011;2210;51.938;8.488;2023-12-20T20:49:36;7.17;;;6.23;;
4391;SDS011;2210;51.938;8.488;2023-12-20T20:53:37;6.77;;;5.80;;
4391;SDS011;2210;51.938;8.488;2023-12-20T20:57:37;7.10;;;5.60;;
4391;SDS011;2210;51.938;8.488;2023-12-20T21:01:38;8.05;;;5.15;;
4391;SDS011;2210;51.938;8.488;2023-12-20T21:05:44;6.33;;;5.30;;
4391;SDS011;2210;51.938;8.488;2023-12-20T21:09:51;5.70;;;4.87;;
4391;SDS011;2210;51.938;8.488;2023-12-20T21:13:51;7.10;;;5.03;;
4391;SDS011;2210;51.938;8.488;2023-12-20T21:17:58;5.47;;;4.97;;
4391;SDS011;2210;51.938;8.488;2023-12-20T21:22:04;4.70;;;4.30;;
4391;SDS011;2210;51.938;8.488;2023-12-20T21:26:05;7.23;;;5.10;;
4391;SDS011;2210;51.938;8.488;2023-12-20T21:30:16;4.23;;;3.80;;
4391;SDS011;2210;51.938;8.488;2023-12-20T21:34:17;6.07;;;3.93;;
4391;SDS011;2210;51.938;8.488;2023-12-20T21:38:20;4.63;;;4.23;;
4391;SDS011;2210;51.938;8.488;2023-12-20T21:42:24;5.93;;;4.07;;
4391;SDS011;2210;51.938;8.488;2023-12-20T21:46:27;4.77;;;4.30;;
4391;SDS011;2210;51.938;8.488;2023-12-20T21:50:29;6.20;;;4.70;;
4391;SDS011;2210;51.938;8.488;2023-12-20T21:54:30;4.50;;;4.10;;
4391;SDS011;2210;51.938;8.488;2023-12-20T21:58:39;4.40;;;4.00;;
4391;SDS011;2210;51.938;8.488;2023-12-20T22:02:40;4.57;;;4.17;;
4391;SDS011;2210;51.938;8.488;2023-12-20T22:06:40;4.57;;;4.17;;
4391;SDS011;2210;51.938;8.488;2023-12-20T22:10:50;4.47;;;4.00;;
4391;SDS011;2210;51.938;8.488;2023-12-20T22:14:53;4.50;;;4.10;;
4391;SDS011;2210;51.938;8.488;2023-12-20T22:18:55;4.23;;;3.83;;
4391;SDS011;2210;51.938;8.488;2023-12-20T22:22:59;4.40;;;3.83;;
4391;SDS011;2210;51.938;8.488;2023-12-20T22:26:59;5.13;;;3.67;;
4391;SDS011;2210;51.938;8.488;2023-12-20T22:31:00;3.93;;;3.63;;
4391;SDS011;2210;51.938;8.488;2023-12-20T22:35:04;3.73;;;3.43;;
4391;SDS011;2210;51.938;8.488;2023-12-20T22:39:06;4.17;;;3.77;;
4391;SDS011;2210;51.938;8.488;2023-12-20T22:43:06;4.03;;;3.72;;
4391;SDS011;2210;51.938;8.488;2023-12-20T22:47:07;3.83;;;3.53;;
4391;SDS011;2210;51.938;8.488;2023-12-20T22:51:19;3.37;;;3.13;;
4391;SDS011;2210;51.938;8.488;2023-12-20T22:55:20;3.30;;;3.10;;
4391;SDS011;2210;51.938;8.488;2023-12-20T22:59:20;4.53;;;3.73;;
4391;SDS011;2210;51.938;8.488;2023-12-20T23:03:20;3.13;;;2.83;;
4391;SDS011;2210;51.938;8.488;2023-12-20T23:07:25;3.87;;;3.57;;
4391;SDS011;2210;51.938;8.488;2023-12-20T23:11:25;3.33;;;3.00;;
4391;SDS011;2210;51.938;8.488;2023-12-20T23:15:25;2.50;;;2.40;;
4391;SDS011;2210;51.938;8.488;2023-12-20T23:19:26;3.30;;;3.00;;
4391;SDS011;2210;51.938;8.488;2023-12-20T23:23:38;3.50;;;3.13;;
4391;SDS011;2210;51.938;8.488;2023-12-20T23:27:38;2.57;;;2.40;;
4391;SDS011;2210;51.938;8.488;2023-12-20T23:31:38;2.27;;;2.10;;
4391;SDS011;2210;51.938;8.488;2023-12-20T23:35:39;2.57;;;2.37;;
4391;SDS011;2210;51.938;8.488;2023-12-20T23:39:39;2.60;;;2.40;;
4391;SDS011;2210;51.938;8.488;2023-12-20T23:43:39;2.70;;;2.30;;
4391;SDS011;2210;51.938;8.488;2023-12-20T23:47:40;1.77;;;1.60;;
4391;SDS011;2210;51.938;8.488;2023-12-20T23:51:40;2.10;;;2.00;;
4391;SDS011;2210;51.938;8.488;2023-12-20T23:55:50;2.43;;;2.23;;
4391;SDS011;2210;51.938;8.488;2023-12-20T23:59:59;2.27;;;2.07;;
